Time;durP1;ratioP1;P1;durP2;ratioP2;P2;SDS_P1;SDS_P2;PMS_P1;PMS_P2;Temp;Humidity;BMP_temperature;BMP_pressure;BME280_temperature;BME280_humidity;BME280_pressure;Samples;Min_cycle;Max_cycle;Signal;HPM_P1;HPM_P2
2022/11/16 00:01:14;;;;;;;54.15;24.85;;;;;;;3.03;94.02;97181.61;1624697;88;20106;-76
2022/11/16 00:03:41;;;;;;;53.45;25.12;;;;;;;3.03;94.01;97189.89;1615064;88;21001;-76
2022/11/16 00:06:10;;;;;;;53.85;23.95;;;;;;;3.04;94.12;97183.80;1618072;88;21055;-76
2022/11/16 00:08:45;;;;;;;47.20;23.50;;;;;;;3.05;94.33;97175.05;1631775;87;21017;-77
2022/11/16 00:11:15;;;;;;;45.58;21.87;;;;;;;3.00;94.37;97184.72;1631594;88;20993;-77
2022/11/16 00:13:42;;;;;;;48.02;22.25;;;;;;;2.99;94.44;97191.69;1630462;87;21052;-77
2022/11/16 00:16:17;;;;;;;47.43;22.15;;;;;;;3.00;94.06;97191.26;1638129;87;21028;-77
2022/11/16 00:18:44;;;;;;;;;;;;;;;2.99;93.92;97188.23;1632254;87;21091;-76
2022/11/16 00:21:10;;;;;;;49.93;22.20;;;;;;;2.96;94.10;97195.67;1653397;87;20091;-76
2022/11/16 00:23:38;;;;;;;49.58;22.40;;;;;;;2.98;94.67;97199.55;1653904;87;21059;-77
2022/11/16 00:26:07;;;;;;;49.60;22.42;;;;;;;2.98;94.87;97199.13;1653855;87;21004;-77
2022/11/16 00:28:36;;;;;;;49.33;22.98;;;;;;;2.99;94.31;97198.70;1653878;87;20976;-77
2022/11/16 00:31:07;;;;;;;50.85;23.98;;;;;;;2.97;94.73;97190.86;1653271;87;21067;-76
2022/11/16 00:33:37;;;;;;;50.10;23.07;;;;;;;2.97;94.98;97193.47;1653270;87;20992;-77
2022/11/16 00:36:07;;;;;;;51.70;22.62;;;;;;;3.04;94.89;97180.72;1653337;87;20996;-78
2022/11/16 00:38:39;;;;;;;48.05;22.37;;;;;;;3.13;95.11;97189.35;1642274;87;21124;-77
2022/11/16 00:41:09;;;;;;;43.55;20.40;;;;;;;3.15;94.80;97185.83;1648277;87;21077;-76
2022/11/16 00:43:38;;;;;;;42.53;21.82;;;;;;;3.23;95.38;97176.98;1653750;87;21004;-76
2022/11/16 00:46:04;;;;;;;46.13;22.62;;;;;;;3.28;94.69;97179.13;1653800;87;21035;-76
2022/11/16 00:48:31;;;;;;;47.45;22.15;;;;;;;3.30;95.08;97172.98;1653531;87;21445;-76
2022/11/16 00:51:03;;;;;;;51.15;23.75;;;;;;;3.37;95.38;97172.89;1653523;87;20984;-76
2022/11/16 00:53:34;;;;;;;50.75;23.27;;;;;;;3.37;94.96;97172.89;1635580;87;21008;-77
2022/11/16 00:56:03;;;;;;;51.15;23.40;;;;;;;3.36;94.71;97169.86;1632592;87;21000;-77
2022/11/16 00:58:31;;;;;;;51.65;22.80;;;;;;;3.36;94.55;97165.92;1653381;85;21430;-76
2022/11/16 01:01:06;;;;;;;45.35;22.58;;;;;;;3.32;94.27;97156.38;1653460;87;21064;-77
2022/11/16 01:03:37;;;;;;;53.68;22.98;;;;;;;3.29;94.56;97160.75;1650094;87;21671;-77
2022/11/16 01:06:10;;;;;;;52.83;23.90;;;;;;;3.30;95.34;97149.41;1638220;87;21390;-77
2022/11/16 01:08:39;;;;;;;52.85;25.35;;;;;;;3.35;95.50;97149.33;1646066;87;21032;-75
2022/11/16 01:13:54;;;;;;;54.70;25.30;;;;;;;3.44;95.72;97133.92;1650188;87;21031;-77
2022/11/16 01:16:23;;;;;;;60.83;25.82;;;;;;;3.44;95.44;97131.30;1654411;86;21044;-77
2022/11/16 01:18:53;;;;;;;62.75;27.40;;;;;;;3.44;95.35;97115.58;1654935;87;21023;-76
2022/11/16 01:21:21;;;;;;;66.05;27.77;;;;;;;3.42;95.18;97118.69;1654920;87;20975;-76
2022/11/16 01:23:49;;;;;;;76.60;28.27;;;;;;;3.38;95.26;97111.32;1647207;87;21699;-76
2022/11/16 01:26:18;;;;;;;68.90;27.67;;;;;;;3.35;95.23;97114.41;1654684;87;21066;-76
2022/11/16 01:28:46;;;;;;;74.60;30.02;;;;;;;3.32;95.31;97102.69;1654013;87;20988;-76
2022/11/16 01:31:15;;;;;;;79.35;28.25;;;;;;;3.30;95.33;97103.58;1648595;87;21072;-77
2022/11/16 01:33:42;;;;;;;89.20;32.03;;;;;;;3.30;95.34;97090.48;1631609;87;20981;-76
2022/11/16 01:36:16;;;;;;;97.65;32.23;;;;;;;3.23;95.01;97094.50;1650409;86;21015;-76
2022/11/16 01:38:45;;;;;;;95.65;32.33;;;;;;;3.18;95.25;97102.44;1650902;87;21080;-77
2022/11/16 01:41:21;;;;;;;83.70;34.05;;;;;;;3.16;95.26;97097.68;1650872;87;21000;-76
2022/11/16 01:44:00;;;;;;;89.52;33.48;;;;;;;3.16;95.59;97106.84;1639237;87;21096;-77
2022/11/16 01:46:31;;;;;;;83.30;33.30;;;;;;;3.15;95.64;97105.97;1638852;87;20997;-76
2022/11/16 01:49:06;;;;;;;78.10;30.32;;;;;;;3.13;95.20;97105.14;1629001;87;20996;-76
2022/11/16 01:51:34;;;;;;;75.80;29.25;;;;;;;3.13;95.39;97099.90;1636887;87;20993;-76
2022/11/16 01:54:04;;;;;;;66.02;27.87;;;;;;;3.14;95.68;97097.70;1639701;87;21447;-77
2022/11/16 01:56:35;;;;;;;63.87;25.60;;;;;;;3.16;95.67;97089.83;1618623;87;21153;-77
2022/11/16 01:59:08;;;;;;;52.23;24.27;;;;;;;3.16;95.53;97087.20;1630558;87;21001;-77
2022/11/16 02:01:37;;;;;;;47.83;21.05;;;;;;;3.16;95.59;97081.51;1634969;87;20980;-77
2022/11/16 02:04:04;;;;;;;47.78;21.15;;;;;;;3.15;95.51;97085.45;1639658;87;21125;-77
2022/11/16 02:06:46;;;;;;;37.95;18.95;;;;;;;3.13;95.37;97086.81;1639452;87;22088;-77
2022/11/16 02:09:54;;;;;;;40.95;19.62;;;;;;;3.15;95.25;97082.41;1621186;87;21025;-77
2022/11/16 02:13:12;;;;;;;38.95;18.87;;;;;;;3.14;95.14;97083.73;1638250;87;21087;-77
2022/11/16 02:15:48;;;;;;;41.53;19.62;;;;;;;3.09;95.00;97082.50;1624763;87;21049;-75
2022/11/16 02:18:53;;;;;;;42.15;20.82;;;;;;;3.06;95.23;97079.07;1638285;86;21044;-76
2022/11/16 02:21:37;;;;;;;44.25;21.07;;;;;;;3.04;95.26;97071.23;1639218;87;21040;-77
2022/11/16 02:24:31;;;;;;;36.60;18.98;;;;;;;3.04;95.37;97069.92;1618956;87;20992;-76
2022/11/16 02:27:43;;;;;;;41.37;19.10;;;;;;;3.06;95.42;97054.20;1639594;87;21083;-77
2022/11/16 02:30:11;;;;;;;35.03;18.52;;;;;;;3.09;95.45;97052.39;1639827;87;20975;-76
2022/11/16 02:32:57;;;;;;;37.88;18.80;;;;;;;3.14;95.41;97045.33;1639707;87;21360;-76
2022/11/16 02:35:34;;;;;;;35.70;18.65;;;;;;;3.20;95.38;97045.66;1639581;87;21032;-76
2022/11/16 02:38:14;;;;;;;35.30;18.65;;;;;;;3.20;95.18;97029.11;1638875;87;20993;-76
2022/11/16 02:40:45;;;;;;;34.60;18.55;;;;;;;3.23;95.24;97027.73;1639619;87;20996;-77
2022/11/16 02:43:25;;;;;;;32.70;17.97;;;;;;;3.24;95.01;97029.48;1639797;87;21004;-76
2022/11/16 02:45:59;;;;;;;35.08;18.23;;;;;;;3.24;94.90;97025.09;1639275;87;21525;-76
2022/11/16 02:48:34;;;;;;;33.98;18.62;;;;;;;3.28;95.27;97021.54;1639726;87;21032;-76
2022/11/16 02:51:02;;;;;;;32.42;17.57;;;;;;;3.33;95.36;97028.46;1639849;87;21087;-76
2022/11/16 02:53:35;;;;;;;34.25;17.60;;;;;;;3.39;95.50;97027.92;1639727;87;21008;-76
2022/11/16 02:56:06;;;;;;;36.80;18.07;;;;;;;3.39;94.80;97023.11;1638481;87;21036;-76
2022/11/16 02:58:35;;;;;;;33.25;17.70;;;;;;;3.39;95.50;97018.75;1639404;87;21092;-76
2022/11/16 03:01:15;;;;;;;32.48;17.48;;;;;;;3.43;95.05;97019.13;1639450;87;21062;-76
2022/11/16 03:03:58;;;;;;;34.13;16.67;;;;;;;3.41;94.85;97011.72;1638858;87;21001;-76
2022/11/16 03:06:31;;;;;;;34.03;18.30;;;;;;;3.42;94.64;97018.72;1638988;87;21009;-76
2022/11/16 03:09:06;;;;;;;30.20;17.45;;;;;;;3.47;95.29;97025.17;1639548;87;21072;-76
2022/11/16 03:14:36;;;;;;;36.35;18.82;;;;;;;3.62;95.20;97021.87;1637421;87;21032;-76
2022/11/16 03:17:07;;;;;;;38.23;19.77;;;;;;;3.61;94.62;97021.45;1639741;87;21020;-76
2022/11/16 03:19:50;;;;;;;37.38;20.37;;;;;;;3.56;94.59;97006.67;1639485;87;21064;-77
2022/11/16 03:22:44;;;;;;;33.92;18.73;;;;;;;3.57;94.69;96997.05;1639655;87;21009;-77
2022/11/16 03:25:15;;;;;;;33.70;18.35;;;;;;;3.50;93.97;96995.00;1638856;86;21040;-76
2022/11/16 03:28:03;;;;;;;36.03;18.82;;;;;;;3.43;94.19;96999.91;1639823;87;21020;-76
2022/11/16 03:30:34;;;;;;;34.90;18.82;;;;;;;3.40;94.15;97004.76;1639698;87;21029;-76
2022/11/16 03:33:25;;;;;;;33.10;17.95;;;;;;;3.38;94.43;96999.13;1639715;87;21091;-77
2022/11/16 03:36:16;;;;;;;33.60;18.60;;;;;;;3.35;94.39;96976.91;1639747;86;21458;-77
2022/11/16 03:38:44;;;;;;;36.98;18.95;;;;;;;3.31;94.33;96976.10;1638813;87;21048;-76
2022/11/16 03:41:14;;;;;;;41.77;20.85;;;;;;;3.27;94.26;96973.11;1639748;87;21008;-76
2022/11/16 03:43:43;;;;;;;42.83;21.30;;;;;;;3.20;94.15;96959.25;1618802;87;21557;-76
2022/11/16 03:46:11;;;;;;;43.25;22.15;;;;;;;3.16;94.02;96958.91;1634597;87;21027;-77
2022/11/16 03:48:39;;;;;;;41.30;21.33;;;;;;;3.11;93.78;96956.81;1634431;87;21005;-76
2022/11/16 03:51:11;;;;;;;50.92;23.90;;;;;;;3.04;94.09;96960.82;1638723;87;20985;-77
2022/11/16 03:53:39;;;;;;;51.10;25.55;;;;;;;2.99;93.68;96970.97;1639648;87;21048;-77
2022/11/16 03:56:06;;;;;;;54.80;24.50;;;;;;;2.88;94.02;96967.20;1639702;87;20996;-77
2022/11/16 03:58:33;;;;;;;54.65;25.75;;;;;;;2.89;94.52;96967.18;1627607;87;20985;-77
2022/11/16 04:00:59;;;;;;;52.93;25.45;;;;;;;2.90;94.19;96965.41;1639755;87;21016;-77
2022/11/16 04:03:26;;;;;;;60.40;26.20;;;;;;;2.88;93.90;96961.53;1639610;87;20993;-77
2022/11/16 04:25:43;;;;;;;54.58;26.00;;;;;;;2.80;94.65;96928.50;1625795;87;21008;-76
2022/11/16 04:28:19;;;;;;;56.63;26.68;;;;;;;2.77;94.28;96932.91;1639309;87;21076;-76
2022/11/16 04:39:13;;;;;;;47.83;23.25;;;;;;;2.81;94.64;96924.55;1639374;87;21016;-77
2022/11/16 04:47:05;;;;;;;42.98;22.40;;;;;;;2.83;95.22;96918.00;1639682;87;20988;-76
2022/11/16 04:47:07;;;;;;;41.53;20.30;;;;;;;2.83;95.19;96914.07;1618350;87;21068;-75
2022/11/16 04:49:34;;;;;;;40.05;20.10;;;;;;;2.86;95.08;96908.80;1628631;87;20980;-75
2022/11/16 04:52:00;;;;;;;38.75;19.92;;;;;;;2.94;95.26;96903.44;1634028;87;21048;-75
2022/11/16 04:54:28;;;;;;;37.00;20.00;;;;;;;2.98;95.27;96907.70;1639671;87;21004;-75
2022/11/16 04:56:55;;;;;;;34.38;17.57;;;;;;;3.04;95.43;96908.47;1639728;87;20993;-76
2022/11/16 04:59:22;;;;;;;38.60;19.12;;;;;;;3.09;95.05;96916.26;1639749;87;21016;-76
2022/11/16 05:02:07;;;;;;;36.03;18.00;;;;;;;3.13;94.98;96903.97;1639261;87;21027;-75
2022/11/16 05:04:42;;;;;;;32.15;17.42;;;;;;;3.16;94.86;96900.84;1639666;87;21031;-77
2022/11/16 05:07:13;;;;;;;31.00;16.37;;;;;;;3.21;94.97;96901.22;1639577;87;21048;-77
2022/11/16 05:09:45;;;;;;;30.82;16.70;;;;;;;3.20;94.70;96900.34;1639505;87;21087;-76
2022/11/16 05:12:19;;;;;;;29.32;16.12;;;;;;;3.15;94.80;96895.63;1638606;87;21120;-77
2022/11/16 05:14:47;;;;;;;35.15;17.05;;;;;;;3.19;95.43;96903.02;1638735;87;21039;-74
2022/11/16 05:17:16;;;;;;;29.85;16.62;;;;;;;3.26;95.25;96897.64;1638405;87;21411;-75
2022/11/16 05:22:31;;;;;;;31.02;17.07;;;;;;;3.32;95.50;96906.27;1562052;91;21035;-74
2022/11/16 05:24:58;;;;;;;31.48;16.00;;;;;;;3.34;95.34;96907.97;1571969;91;21083;-75
2022/11/16 05:27:29;;;;;;;31.73;16.67;;;;;;;3.35;95.19;96904.89;1597117;87;21435;-75
2022/11/16 05:29:57;;;;;;;31.65;16.48;;;;;;;3.32;94.99;96897.11;1618976;87;21036;-75
2022/11/16 05:32:28;;;;;;;32.45;16.30;;;;;;;3.30;94.73;96887.96;1631672;88;21046;-77
2022/11/16 05:34:57;;;;;;;30.08;17.75;;;;;;;3.22;94.73;96883.30;1631331;88;21143;-75
2022/11/16 05:37:25;;;;;;;31.17;17.42;;;;;;;3.22;95.03;96897.27;1630777;88;21435;-75
2022/11/16 05:39:55;;;;;;;33.05;17.65;;;;;;;3.20;94.67;96892.95;1631620;87;21033;-76
2022/11/16 05:42:23;;;;;;;32.10;18.67;;;;;;;3.15;94.65;96887.78;1626938;88;21012;-76
2022/11/16 05:44:50;;;;;;;33.67;18.15;;;;;;;3.12;94.60;96891.78;1614840;88;21020;-76
2022/11/16 05:47:17;;;;;;;36.77;18.52;;;;;;;3.09;94.70;96882.66;1626715;88;21355;-76
2022/11/16 05:49:46;;;;;;;39.27;20.02;;;;;;;3.12;95.26;96886.55;1629426;88;21037;-76
2022/11/16 05:52:13;;;;;;;36.45;19.90;;;;;;;3.14;95.15;96883.44;1624702;88;20997;-75
2022/11/16 05:54:41;;;;;;;43.58;21.45;;;;;;;3.13;95.06;96885.22;1629586;88;21029;-75
2022/11/16 05:57:07;;;;;;;46.70;21.62;;;;;;;3.15;95.23;96879.92;1627127;88;21491;-75
2022/11/16 05:59:34;;;;;;;50.33;24.37;;;;;;;3.14;94.74;96879.52;1606278;89;21000;-75
2022/11/16 06:02:04;;;;;;;45.43;22.90;;;;;;;3.14;94.84;96880.82;1614685;88;21434;-75
2022/11/16 06:04:33;;;;;;;43.25;21.70;;;;;;;3.15;95.17;96880.80;1628923;88;21438;-75
2022/11/16 06:07:00;;;;;;;44.23;21.82;;;;;;;3.17;95.00;96875.08;1599478;89;21009;-75
2022/11/16 06:09:28;;;;;;;48.40;23.27;;;;;;;3.18;94.94;96870.72;1627289;88;21069;-75
2022/11/16 06:11:55;;;;;;;46.30;23.22;;;;;;;3.21;95.04;96865.44;1618444;87;20965;-76
2022/11/16 06:14:22;;;;;;;43.83;22.70;;;;;;;3.21;95.12;96866.75;1621750;88;21514;-76
2022/11/16 06:16:50;;;;;;;44.33;21.85;;;;;;;3.23;95.08;96858.84;1614297;88;21447;-75
2022/11/16 06:19:19;;;;;;;49.40;24.75;;;;;;;3.24;95.23;96853.58;1624379;88;21023;-75
2022/11/16 06:21:45;;;;;;;51.95;24.77;;;;;;;3.28;95.20;96856.56;1599094;90;21434;-76
2022/11/16 06:24:14;;;;;;;52.75;25.15;;;;;;;3.30;95.30;96866.58;1626281;88;21015;-75
2022/11/16 06:26:41;;;;;;;57.53;26.77;;;;;;;3.33;95.37;96865.66;1624596;88;20983;-76
2022/11/16 06:29:08;;;;;;;57.00;27.45;;;;;;;3.36;95.07;96870.81;1600697;90;21043;-76
2022/11/16 06:31:35;;;;;;;54.53;26.15;;;;;;;3.35;94.93;96869.09;1574656;90;21044;-75
2022/11/16 06:34:02;;;;;;;52.40;25.90;;;;;;;3.37;94.99;96859.91;1615159;89;20996;-76
2022/11/16 06:36:29;;;;;;;57.50;26.62;;;;;;;3.39;95.17;96867.27;1579585;90;21009;-76
2022/11/16 06:39:02;;;;;;;58.10;26.80;;;;;;;3.39;94.87;96867.27;1581852;90;21410;-76
2022/11/16 06:41:31;;;;;;;55.17;26.62;;;;;;;3.38;94.69;96867.73;1578760;90;21052;-76
2022/11/16 06:43:58;;;;;;;61.73;29.10;;;;;;;3.39;95.07;96860.30;1615486;89;21012;-76
2022/11/16 06:46:26;;;;;;;64.12;29.27;;;;;;;3.42;94.73;96852.82;1614651;88;21087;-76
2022/11/16 06:48:53;;;;;;;65.80;28.57;;;;;;;3.41;94.73;96855.88;1615404;88;21060;-76
2022/11/16 06:51:20;;;;;;;66.60;28.67;;;;;;;3.39;94.68;96868.15;1615383;88;21051;-77
2022/11/16 06:53:46;;;;;;;63.90;28.85;;;;;;;3.38;94.94;96874.28;1615441;89;21056;-76
2022/11/16 06:56:15;;;;;;;63.33;29.10;;;;;;;3.38;94.95;96867.73;1615294;88;21486;-76
2022/11/16 06:58:43;;;;;;;59.33;26.82;;;;;;;3.37;95.01;96850.73;1615363;88;21012;-77
2022/11/16 07:01:11;;;;;;;64.00;29.23;;;;;;;3.38;94.85;96857.27;1615357;88;21085;-77
2022/11/16 07:03:39;;;;;;;66.92;29.82;;;;;;;3.39;94.58;96861.60;1615542;88;20973;-77
2022/11/16 07:06:09;;;;;;;57.62;27.40;;;;;;;3.42;94.82;96857.62;1615387;89;21088;-77
2022/11/16 07:08:38;;;;;;;58.45;26.60;;;;;;;3.49;94.60;96862.73;1615628;89;21404;-77
2022/11/16 07:11:07;;;;;;;52.78;24.95;;;;;;;3.50;94.64;96857.47;1619192;88;21105;-77
2022/11/16 07:13:38;;;;;;;51.88;25.15;;;;;;;3.59;95.47;96851.18;1613876;88;21120;-78
2022/11/16 07:16:11;;;;;;;52.45;25.15;;;;;;;3.69;95.33;96854.45;1615344;89;21036;-78
2022/11/16 07:18:40;;;;;;;50.85;24.75;;;;;;;3.77;95.46;96859.11;1639655;87;21032;-76
2022/11/16 07:21:14;;;;;;;48.75;24.00;;;;;;;3.88;95.62;96854.08;1626519;87;21083;-77
2022/11/16 07:23:44;;;;;;;47.20;24.00;;;;;;;3.94;95.82;96851.32;1631786;87;22950;-77
2022/11/16 07:26:17;;;;;;;42.80;21.68;;;;;;;4.01;95.45;96848.13;1616546;87;21032;-76
2022/11/16 07:28:49;;;;;;;45.77;23.60;;;;;;;4.12;95.54;96836.09;1578842;90;21475;-78
2022/11/16 07:31:17;;;;;;;40.48;20.32;;;;;;;4.22;95.77;96824.50;1617803;87;21139;-78
2022/11/16 07:33:45;;;;;;;46.83;23.20;;;;;;;4.30;95.60;96822.56;1588084;88;21005;-77
2022/11/16 07:36:29;;;;;;;47.65;23.83;;;;;;;4.36;95.67;96831.59;1631505;87;21430;-76
2022/11/16 07:39:01;;;;;;;54.48;25.85;;;;;;;4.44;95.60;96825.32;1624506;87;21043;-76
2022/11/16 07:41:30;;;;;;;56.63;27.40;;;;;;;4.49;95.43;96822.98;1609080;88;21440;-77
2022/11/16 07:44:06;;;;;;;59.40;28.35;;;;;;;4.54;95.20;96819.39;1615338;87;21056;-77
2022/11/16 07:46:33;;;;;;;59.00;28.02;;;;;;;4.55;95.00;96820.67;1624569;87;21039;-77
2022/11/16 07:49:00;;;;;;;63.58;30.57;;;;;;;4.54;94.73;96813.70;1610857;87;21068;-76
2022/11/16 07:51:32;;;;;;;70.52;31.02;;;;;;;4.53;94.66;96813.73;1630610;87;21496;-76
2022/11/16 07:54:05;;;;;;;67.53;30.40;;;;;;;4.51;94.39;96814.20;1584557;90;21469;-76
2022/11/16 07:56:32;;;;;;;64.77;30.45;;;;;;;4.45;94.42;96809.52;1627140;87;21068;-76
2022/11/16 07:59:00;;;;;;;74.55;30.65;;;;;;;4.45;94.41;96812.61;1633171;87;21024;-76
2022/11/16 08:01:27;;;;;;;72.17;30.43;;;;;;;4.44;94.21;96802.55;1586495;90;21062;-76
2022/11/16 08:03:55;;;;;;;68.45;30.48;;;;;;;4.49;94.46;96806.39;1583375;90;21493;-77
2022/11/16 08:06:27;;;;;;;64.05;29.80;;;;;;;4.52;94.40;96808.08;1633000;87;21019;-78
2022/11/16 08:08:54;;;;;;;63.13;29.95;;;;;;;4.54;94.44;96809.77;1604386;87;21482;-77
2022/11/16 08:11:22;;;;;;;65.85;29.52;;;;;;;4.56;94.43;96812.33;1595991;90;21680;-76
2022/11/16 08:13:50;;;;;;;61.68;30.37;;;;;;;4.54;93.99;96811.52;1642999;87;21489;-77
2022/11/16 08:16:23;;;;;;;68.60;30.50;;;;;;;4.46;93.76;96803.40;1629922;87;21545;-76
2022/11/16 08:18:51;;;;;;;72.90;32.90;;;;;;;4.45;93.86;96797.71;1592434;90;21026;-76
2022/11/16 08:21:20;;;;;;;76.12;32.93;;;;;;;4.43;93.87;96797.34;1629768;87;21047;-76
2022/11/16 08:23:48;;;;;;;75.10;33.18;;;;;;;4.43;94.01;96787.72;1628587;87;22109;-77
2022/11/16 08:26:18;;;;;;;79.20;34.65;;;;;;;4.46;94.30;96784.16;1641328;87;21514;-76
2022/11/16 08:28:50;;;;;;;79.67;34.67;;;;;;;4.49;94.32;96784.94;1633591;87;21039;-75
2022/11/16 08:31:22;;;;;;;75.25;33.45;;;;;;;4.54;94.20;96790.09;1640747;87;21047;-76
2022/11/16 08:33:51;;;;;;;67.67;31.87;;;;;;;4.60;94.33;96783.80;1624023;87;21000;-74
2022/11/16 08:36:19;;;;;;;75.60;34.18;;;;;;;4.69;94.37;96778.80;1622875;87;21461;-67
2022/11/16 08:38:49;;;;;;;68.55;32.73;;;;;;;4.80;94.64;96777.18;1621598;87;21027;-67
2022/11/16 08:41:18;;;;;;;68.78;32.88;;;;;;;4.92;94.69;96779.50;1621622;87;21059;-67
2022/11/16 08:43:46;;;;;;;65.45;33.83;;;;;;;4.99;94.20;96786.30;1623049;87;21052;-67
2022/11/16 08:46:14;;;;;;;68.52;33.98;;;;;;;5.07;93.99;96783.45;1620797;87;21072;-67
2022/11/16 08:48:43;;;;;;;76.10;35.75;;;;;;;5.07;93.45;96771.64;1624229;87;21496;-67
2022/11/16 08:51:14;;;;;;;77.72;37.08;;;;;;;5.08;93.31;96776.45;1620803;87;21410;-67
2022/11/16 08:53:43;;;;;;;75.45;36.33;;;;;;;5.08;92.94;96771.20;1620961;87;21059;-67
2022/11/16 08:56:12;;;;;;;77.75;36.58;;;;;;;5.09;93.28;96767.23;1638861;87;21008;-66
2022/11/16 08:58:43;;;;;;;74.60;35.75;;;;;;;5.19;93.46;96767.81;1641588;87;21406;-67
2022/11/16 09:01:17;;;;;;;75.28;37.55;;;;;;;5.26;93.67;96758.00;1628461;87;21545;-66
2022/11/16 09:03:44;;;;;;;74.15;33.90;;;;;;;5.37;93.86;96759.89;1622308;87;21000;-72
2022/11/16 09:06:12;;;;;;;71.50;36.25;;;;;;;5.49;93.44;96760.44;1640180;87;21040;-72
2022/11/16 09:08:44;;;;;;;78.22;36.77;;;;;;;5.57;92.85;96771.59;1642727;87;21489;-72
2022/11/16 09:11:17;;;;;;;66.47;33.45;;;;;;;5.63;93.30;96764.83;1636210;87;21351;-71
2022/11/16 09:13:47;;;;;;;54.98;28.05;;;;;;;5.67;92.64;96757.27;1619068;87;21028;-66
2022/11/16 09:16:15;;;;;;;55.10;28.87;;;;;;;5.57;91.83;96766.78;1625114;87;21472;-66
2022/11/16 09:18:47;;;;;;;56.15;29.48;;;;;;;5.45;91.95;96771.50;1640694;87;21044;-67
2022/11/16 09:21:21;;;;;;;55.25;27.20;;;;;;;5.37;91.93;96777.41;1638475;87;21056;-68
2022/11/16 09:23:48;;;;;;;55.98;26.85;;;;;;;5.30;92.29;96767.52;1617533;87;21469;-67
2022/11/16 09:26:20;;;;;;;45.60;24.70;;;;;;;5.32;92.48;96767.05;1617244;87;21040;-67
2022/11/16 09:28:59;;;;;;;47.13;24.72;;;;;;;5.38;92.37;96755.05;1617573;87;20993;-67
2022/11/16 09:31:27;;;;;;;48.85;26.27;;;;;;;5.44;92.38;96750.04;1617283;87;21073;-68
2022/11/16 09:33:57;;;;;;;47.78;25.77;;;;;;;5.49;91.95;96757.34;1616949;87;21043;-75
2022/11/16 09:36:26;;;;;;;47.58;24.98;;;;;;;5.57;92.34;96745.75;1626853;87;21013;-75
2022/11/16 09:38:53;;;;;;;44.27;25.88;;;;;;;5.66;92.57;96747.64;1635097;87;21063;-76
2022/11/16 09:42:07;;;;;;;44.45;23.50;;;;;;;5.73;92.08;96750.10;1625481;87;21470;-76
2022/11/16 09:44:58;;;;;;;42.08;23.20;;;;;;;5.79;92.04;96753.85;1629815;87;20981;-76
2022/11/16 09:47:56;;;;;;;36.15;20.08;;;;;;;5.80;91.81;96759.07;1632331;87;21024;-76
2022/11/16 09:50:31;;;;;;;40.45;22.07;;;;;;;5.85;91.52;96752.81;1636285;87;21488;-76
2022/11/16 09:53:06;;;;;;;36.40;20.25;;;;;;;5.85;90.71;96741.83;1637197;86;21043;-75
2022/11/16 09:55:39;;;;;;;38.50;21.30;;;;;;;5.89;90.96;96726.36;1635325;87;21024;-75
2022/11/16 09:58:14;;;;;;;38.40;21.62;;;;;;;6.03;90.54;96731.21;1615602;87;21056;-75
2022/11/16 10:00:46;;;;;;;37.15;21.23;;;;;;;6.12;90.70;96727.45;1633817;87;21071;-75
2022/11/16 10:03:14;;;;;;;36.58;20.70;;;;;;;6.23;91.11;96726.23;1637716;87;21040;-76
2022/11/16 10:06:02;;;;;;;39.25;22.17;;;;;;;6.32;90.75;96710.15;1621354;87;21067;-76
2022/11/16 10:08:50;;;;;;;40.83;21.95;;;;;;;6.45;91.12;96714.06;1619142;87;21028;-76
2022/11/16 10:11:26;;;;;;;36.25;21.82;;;;;;;6.67;91.05;96706.77;1617736;87;21461;-76
2022/11/16 10:14:01;;;;;;;36.45;20.12;;;;;;;6.88;90.67;96705.61;1619231;87;21596;-76
2022/11/16 10:16:36;;;;;;;34.03;20.75;;;;;;;6.97;87.75;96700.01;1616797;87;21095;-76
2022/11/16 10:19:21;;;;;;;29.35;19.50;;;;;;;7.07;89.29;96692.65;1598334;87;21473;-75
2022/11/16 10:21:57;;;;;;;;;;;;;;;7.23;89.13;96684.17;1634984;87;21063;-75
2022/11/16 10:24:57;;;;;;;33.65;20.37;;;;;;;7.36;88.80;96685.89;1618256;87;20106;-74
2022/11/16 10:27:33;;;;;;;30.65;19.27;;;;;;;7.36;88.05;96681.45;1617635;87;21011;-77
2022/11/16 10:30:16;;;;;;;30.30;19.02;;;;;;;7.32;87.46;96685.59;1624858;87;21032;-75
2022/11/16 10:33:05;;;;;;;32.75;18.48;;;;;;;7.34;87.76;96679.34;1620986;87;22102;-75
2022/11/16 10:35:53;;;;;;;31.00;19.40;;;;;;;7.32;87.00;96673.73;1612600;87;21461;-75
2022/11/16 10:38:29;;;;;;;31.07;19.87;;;;;;;7.20;87.30;96659.24;1639367;87;21421;-75
2022/11/16 10:41:14;;;;;;;35.20;20.68;;;;;;;7.25;85.04;96652.89;1638625;87;21110;-76
2022/11/16 10:43:44;;;;;;;33.90;21.33;;;;;;;7.35;86.99;96656.02;1635621;87;21494;-75
2022/11/16 10:46:39;;;;;;;33.63;21.93;;;;;;;7.39;86.61;96656.75;1626564;87;21052;-74
2022/11/16 10:49:17;;;;;;;39.67;23.70;;;;;;;7.43;86.78;96661.00;1620377;87;21052;-75
2022/11/16 10:51:44;;;;;;;37.13;23.42;;;;;;;7.39;82.99;96645.77;1622189;87;21438;-75
2022/11/16 10:54:13;;;;;;;41.00;24.72;;;;;;;7.30;84.19;96644.80;1632890;87;21015;-74
2022/11/16 10:56:44;;;;;;;41.53;24.65;;;;;;;7.28;84.94;96649.73;1621009;87;21075;-75
2022/11/16 10:59:14;;;;;;;46.10;26.52;;;;;;;7.28;85.63;96653.23;1617485;87;21048;-75
2022/11/16 11:01:56;;;;;;;48.33;26.52;;;;;;;7.31;85.35;96648.30;1617511;87;21036;-75
2022/11/16 11:04:26;;;;;;;47.50;28.05;;;;;;;7.29;84.45;96639.58;1616310;88;20977;-75
2022/11/16 11:07:03;;;;;;;46.85;27.52;;;;;;;7.26;85.00;96636.16;1646686;87;21032;-74
2022/11/16 11:09:35;;;;;;;45.33;27.07;;;;;;;7.26;85.44;96641.43;1630404;86;21032;-74
2022/11/16 11:12:37;;;;;;;45.28;25.97;;;;;;;7.18;84.53;96634.74;1629746;87;21458;-74
2022/11/16 11:15:21;;;;;;;41.65;24.35;;;;;;;7.10;84.53;96632.40;1643728;87;20993;-73
2022/11/16 11:17:50;;;;;;;39.45;23.42;;;;;;;7.05;85.75;96631.23;1642075;87;21083;-74
2022/11/16 11:20:22;;;;;;;39.33;23.20;;;;;;;7.03;85.40;96629.58;1569226;90;21048;-74
2022/11/16 11:22:59;;;;;;;37.90;23.27;;;;;;;6.98;85.53;96625.34;1628583;88;21072;-75
2022/11/16 11:25:37;;;;;;;35.73;22.00;;;;;;;6.89;85.88;96634.05;1624912;87;21056;-75
2022/11/16 11:28:33;;;;;;;39.13;22.45;;;;;;;6.85;86.50;96635.95;1637560;87;21061;-74
2022/11/16 11:31:21;;;;;;;37.38;21.97;;;;;;;6.82;86.64;96627.67;1600195;88;21522;-75
2022/11/16 11:33:56;;;;;;;36.68;22.02;;;;;;;6.84;87.06;96623.67;1623731;88;21028;-73
2022/11/16 11:36:49;;;;;;;30.88;19.27;;;;;;;6.88;87.06;96621.33;1621640;88;21063;-75
2022/11/16 11:39:24;;;;;;;32.78;19.50;;;;;;;6.89;86.69;96622.20;1618956;88;21057;-75
2022/11/16 11:42:17;;;;;;;31.57;19.12;;;;;;;6.84;86.81;96625.86;1629655;88;21084;-74
2022/11/16 11:44:56;;;;;;;35.70;21.17;;;;;;;6.80;87.33;96624.25;1612619;88;21068;-74
2022/11/16 11:47:31;;;;;;;29.32;19.50;;;;;;;6.78;87.31;96628.72;1611985;88;21084;-76
2022/11/16 11:50:21;;;;;;;34.00;20.43;;;;;;;6.76;87.41;96624.42;1612122;88;21091;-75
2022/11/16 11:53:11;;;;;;;35.88;20.85;;;;;;;6.72;87.92;96625.84;1613071;88;21115;-74
2022/11/16 11:55:39;;;;;;;34.30;22.02;;;;;;;6.64;87.88;96612.56;1616061;87;21526;-74
2022/11/16 11:58:09;;;;;;;36.98;22.62;;;;;;;6.63;88.27;96605.55;1610335;88;21052;-75
2022/11/16 12:00:44;;;;;;;42.08;24.77;;;;;;;6.66;88.79;96594.48;1619015;88;21033;-74
2022/11/16 12:03:19;;;;;;;45.15;26.10;;;;;;;6.71;88.87;96590.34;1588112;87;21053;-74
2022/11/16 12:05:56;;;;;;;51.33;27.00;;;;;;;6.75;88.61;96593.27;1600348;87;21485;-74
2022/11/16 12:08:38;;;;;;;46.58;26.15;;;;;;;6.78;88.74;96587.91;1629961;88;21060;-74
2022/11/16 12:11:33;;;;;;;43.13;25.37;;;;;;;6.82;88.63;96589.48;1613607;86;21009;-75
2022/11/16 12:14:11;;;;;;;51.77;28.02;;;;;;;6.88;88.64;96588.41;1637864;87;21068;-76
2022/11/16 12:16:58;;;;;;;50.28;29.37;;;;;;;6.94;88.55;96579.42;1616186;88;21083;-75
2022/11/16 12:19:48;;;;;;;42.25;25.68;;;;;;;7.02;88.65;96578.66;1637837;87;21509;-75
2022/11/16 12:22:35;;;;;;;45.23;27.75;;;;;;;7.03;88.38;96579.53;1639630;87;20981;-75
2022/11/16 12:25:31;;;;;;;44.08;25.45;;;;;;;7.11;88.81;96574.83;1638374;87;21028;-74
2022/11/16 12:28:31;;;;;;;42.43;24.77;;;;;;;7.17;88.89;96569.31;1620928;87;21460;-74
2022/11/16 12:31:28;;;;;;;44.63;24.82;;;;;;;7.26;88.75;96575.55;1627070;87;21488;-75
2022/11/16 12:34:12;;;;;;;43.83;24.95;;;;;;;7.33;88.87;96577.48;1615016;87;21049;-74
2022/11/16 12:37:22;;;;;;;48.42;26.55;;;;;;;7.38;88.18;96571.57;1636494;87;21075;-74